Time;durP1;ratioP1;P1;durP2;ratioP2;P2;SDS_P1;SDS_P2;PMS_P1;PMS_P2;Temp;Humidity;BMP_temperature;BMP_pressure;BME280_temperature;BME280_humidity;BME280_pressure;Samples;Min_cycle;Max_cycle;Signal;HPM_P1;HPM_P2
2023/09/26 00:01:06;;;;;;;1999.90;999.90;;;17.60;99.90;;;;;;5021960;28;20033;-78
2023/09/26 00:03:32;;;;;;;1999.90;999.90;;;17.60;99.90;;;;;;5026655;28;20547;-78
2023/09/26 00:05:57;;;;;;;1999.90;999.90;;;17.50;99.90;;;;;;5024692;28;20369;-73
2023/09/26 00:08:23;;;;;;;1999.90;999.90;;;17.50;99.90;;;;;;5025802;28;20675;-73
2023/09/26 00:10:49;;;;;;;1999.90;999.90;;;17.50;99.90;;;;;;5025488;28;20036;-78
2023/09/26 00:13:15;;;;;;;1999.90;999.90;;;17.50;99.90;;;;;;5025805;28;20131;-78
2023/09/26 00:15:41;;;;;;;1999.90;999.90;;;17.50;99.90;;;;;;5026651;28;20033;-78
2023/09/26 00:18:06;;;;;;;1999.90;999.90;;;17.50;99.90;;;;;;5023782;28;20455;-73
2023/09/26 00:20:35;;;;;;;1999.90;999.90;;;17.50;99.90;;;;;;5026216;28;20040;-73
2023/09/26 00:23:01;;;;;;;1999.90;999.90;;;17.50;99.90;;;;;;5026156;28;20893;-73
2023/09/26 00:25:27;;;;;;;1999.90;999.90;;;17.50;99.90;;;;;;5025461;28;20087;-78
2023/09/26 00:27:53;;;;;;;1999.90;999.90;;;17.40;99.90;;;;;;5026325;28;20058;-79
2023/09/26 00:30:20;;;;;;;1999.90;999.90;;;17.40;99.90;;;;;;5026151;28;20705;-78
2023/09/26 00:32:46;;;;;;;1999.90;999.90;;;17.40;99.90;;;;;;5026491;28;20123;-73
2023/09/26 00:35:12;;;;;;;1999.90;999.90;;;17.40;99.90;;;;;;5023821;28;20036;-78
2023/09/26 00:37:47;;;;;;;1999.90;999.90;;;17.40;99.90;;;;;;5017831;28;20037;-77
2023/09/26 00:40:18;;;;;;;1999.90;999.90;;;17.30;99.90;;;;;;5025796;28;20021;-78
2023/09/26 00:42:45;;;;;;;1999.90;999.90;;;17.30;99.90;;;;;;5025320;28;20167;-78
2023/09/26 00:45:11;;;;;;;1999.90;999.90;;;17.30;99.90;;;;;;5025663;28;20034;-73
2023/09/26 00:47:39;;;;;;;1999.90;999.90;;;17.20;99.90;;;;;;5025919;28;20585;-77
2023/09/26 00:50:09;;;;;;;1999.90;999.90;;;17.20;99.90;;;;;;5026016;28;20633;-78
2023/09/26 00:52:36;;;;;;;1999.90;999.90;;;17.20;99.90;;;;;;5025997;28;20099;-78
2023/09/26 00:55:04;;;;;;;1999.90;999.90;;;17.10;99.90;;;;;;5026439;28;20066;-77
2023/09/26 00:57:35;;;;;;;1999.90;999.90;;;17.20;99.90;;;;;;5006067;28;20585;-72
2023/09/26 01:00:02;;;;;;;1999.90;999.90;;;17.20;99.90;;;;;;5010570;28;20141;-73
2023/09/26 01:02:28;;;;;;;1999.90;999.90;;;17.20;99.90;;;;;;5025936;28;20543;-78
2023/09/26 01:04:54;;;;;;;1999.90;999.90;;;17.20;99.90;;;;;;5025521;28;20068;-72
2023/09/26 01:07:21;;;;;;;1999.90;999.90;;;17.20;99.90;;;;;;5024534;28;20377;-73
2023/09/26 01:09:47;;;;;;;1999.90;999.90;;;17.10;99.90;;;;;;5025655;28;20068;-72
2023/09/26 01:12:13;;;;;;;1999.90;999.90;;;17.10;99.90;;;;;;5020741;28;20020;-73
2023/09/26 01:14:39;;;;;;;1999.90;999.90;;;17.10;99.90;;;;;;5006224;28;20022;-73
2023/09/26 01:17:04;;;;;;;1999.90;999.90;;;17.10;99.90;;;;;;5005697;28;20040;-78
2023/09/26 01:19:30;;;;;;;1999.90;999.90;;;17.10;99.90;;;;;;5003316;28;20072;-78
2023/09/26 01:21:56;;;;;;;1999.90;999.90;;;17.00;99.90;;;;;;5006231;28;20029;-78
2023/09/26 01:24:21;;;;;;;1999.90;999.90;;;17.00;99.90;;;;;;5005781;28;20448;-73
2023/09/26 01:26:47;;;;;;;1999.90;999.90;;;16.90;99.90;;;;;;5005371;28;20092;-78
2023/09/26 01:29:12;;;;;;;1999.90;999.90;;;16.90;99.90;;;;;;5003533;28;20060;-78
2023/09/26 01:31:38;;;;;;;1999.90;999.90;;;16.90;99.90;;;;;;5005737;28;20497;-73
2023/09/26 01:34:04;;;;;;;1999.90;999.90;;;16.80;99.90;;;;;;5006115;28;20332;-78
2023/09/26 01:36:31;;;;;;;1999.90;999.90;;;16.70;99.90;;;;;;5008398;28;20443;-73
2023/09/26 01:38:57;;;;;;;1999.90;999.90;;;16.70;99.90;;;;;;5025084;28;20033;-73
2023/09/26 01:41:24;;;;;;;1999.90;999.90;;;16.60;99.90;;;;;;5029163;28;20025;-77
2023/09/26 01:43:50;;;;;;;1999.90;999.90;;;16.60;99.90;;;;;;5029756;28;20478;-78
2023/09/26 01:46:17;;;;;;;1999.90;999.90;;;16.60;99.90;;;;;;5026989;28;20025;-78
2023/09/26 01:48:43;;;;;;;1999.90;999.90;;;16.60;99.90;;;;;;5028560;28;21077;-73
2023/09/26 01:51:09;;;;;;;1999.90;999.90;;;16.60;99.90;;;;;;5029175;28;20300;-72
2023/09/26 01:53:35;;;;;;;1999.90;999.90;;;16.50;99.90;;;;;;5029287;28;20141;-77
2023/09/26 01:56:01;;;;;;;1999.90;999.90;;;16.50;99.90;;;;;;5020769;28;20440;-78
2023/09/26 01:58:27;;;;;;;1999.90;999.90;;;16.50;99.90;;;;;;5009081;28;20500;-78
2023/09/26 02:00:53;;;;;;;1999.90;999.90;;;16.50;99.90;;;;;;5022577;28;20040;-78
2023/09/26 02:03:19;;;;;;;1999.90;999.90;;;16.40;99.90;;;;;;5028896;28;20017;-73
2023/09/26 02:05:45;;;;;;;1999.90;999.90;;;16.40;99.90;;;;;;5028250;28;20433;-73
2023/09/26 02:08:11;;;;;;;1999.90;999.90;;;16.30;99.90;;;;;;5028747;28;20044;-78
2023/09/26 02:10:37;;;;;;;1999.90;999.90;;;16.30;99.90;;;;;;5028643;28;20036;-73
2023/09/26 02:13:03;;;;;;;1999.90;999.90;;;16.20;99.90;;;;;;5028766;28;20091;-78
2023/09/26 02:15:28;;;;;;;1999.90;999.90;;;16.20;99.90;;;;;;5028906;28;20037;-78
2023/09/26 02:17:54;;;;;;;1999.90;999.90;;;16.20;99.90;;;;;;5028627;28;20721;-73
2023/09/26 02:20:20;;;;;;;1999.90;999.90;;;16.20;99.90;;;;;;5027154;28;20041;-78
2023/09/26 02:22:47;;;;;;;1999.90;999.90;;;16.10;99.90;;;;;;5028580;28;20116;-77
2023/09/26 02:25:14;;;;;;;1999.90;999.90;;;16.10;99.90;;;;;;5027915;28;20056;-78
2023/09/26 02:27:41;;;;;;;1999.90;999.90;;;16.10;99.90;;;;;;5028617;28;20052;-73
2023/09/26 02:30:08;;;;;;;1999.90;999.90;;;16.20;99.90;;;;;;5028277;28;20128;-78
2023/09/26 02:32:35;;;;;;;1999.90;999.90;;;16.20;99.90;;;;;;5026042;28;20098;-78
2023/09/26 02:35:11;;;;;;;1999.90;999.90;;;16.20;99.90;;;;;;5028461;28;20056;-72
2023/09/26 02:37:39;;;;;;;1999.90;999.90;;;16.20;99.90;;;;;;5020332;28;20041;-73
2023/09/26 02:40:07;;;;;;;1999.90;999.90;;;16.20;99.90;;;;;;5027699;28;20037;-78
2023/09/26 02:42:33;;;;;;;1999.90;999.90;;;16.30;99.90;;;;;;5028207;28;20909;-73
2023/09/26 02:44:59;;;;;;;1999.90;999.90;;;16.20;99.90;;;;;;5027896;28;20099;-78
2023/09/26 02:47:25;;;;;;;1999.90;999.90;;;16.20;99.90;;;;;;5025692;28;20025;-78
2023/09/26 02:49:51;;;;;;;1999.90;999.90;;;16.20;99.90;;;;;;5027487;28;20029;-78
2023/09/26 02:52:16;;;;;;;1999.90;999.90;;;16.10;99.90;;;;;;5026575;28;20364;-78
2023/09/26 02:54:42;;;;;;;1999.90;999.90;;;16.20;99.90;;;;;;5028248;28;20033;-73
2023/09/26 02:57:08;;;;;;;1999.90;999.90;;;16.20;99.90;;;;;;5010122;28;20354;-73
2023/09/26 02:59:33;;;;;;;1999.90;999.90;;;16.20;99.90;;;;;;5010759;28;20234;-77
2023/09/26 03:01:59;;;;;;;1999.90;999.90;;;16.20;99.90;;;;;;5027460;28;20443;-73
2023/09/26 03:04:24;;;;;;;1999.90;999.90;;;16.10;99.90;;;;;;5027320;28;20017;-78
2023/09/26 03:06:50;;;;;;;1999.90;999.90;;;16.10;99.90;;;;;;5026368;28;20156;-73
2023/09/26 03:09:16;;;;;;;1999.90;999.90;;;16.10;99.90;;;;;;5025412;28;20036;-72
2023/09/26 03:11:45;;;;;;;1999.90;999.90;;;16.10;99.90;;;;;;5027287;28;20422;-78
2023/09/26 03:14:11;;;;;;;1999.90;999.90;;;16.00;99.90;;;;;;5027582;28;20029;-73
2023/09/26 03:16:36;;;;;;;1999.90;999.90;;;16.00;99.90;;;;;;5027108;28;20107;-78
2023/09/26 03:19:02;;;;;;;1999.90;999.90;;;16.00;99.90;;;;;;5027290;28;20037;-77
2023/09/26 03:21:28;;;;;;;1999.90;999.90;;;15.90;99.90;;;;;;5027626;28;20550;-73
2023/09/26 03:23:54;;;;;;;1999.90;999.90;;;15.90;99.90;;;;;;5026873;28;20033;-77
2023/09/26 03:26:20;;;;;;;1999.90;999.90;;;15.90;99.90;;;;;;5025073;28;20975;-78
2023/09/26 03:28:45;;;;;;;1999.90;999.90;;;15.90;99.90;;;;;;5027188;28;20033;-73
2023/09/26 03:31:11;;;;;;;1999.90;999.90;;;15.90;99.90;;;;;;5025019;28;20063;-78
2023/09/26 03:33:37;;;;;;;1999.90;999.90;;;15.90;99.90;;;;;;5027117;28;20573;-73
2023/09/26 03:36:03;;;;;;;1999.90;999.90;;;15.90;99.90;;;;;;5025151;28;20040;-77
2023/09/26 03:38:30;;;;;;;1999.90;999.90;;;15.90;99.90;;;;;;5018898;28;20044;-77
2023/09/26 03:41:05;;;;;;;1999.90;999.90;;;16.00;99.90;;;;;;5027124;28;20645;-77
2023/09/26 03:43:31;;;;;;;1999.90;999.90;;;16.00;99.90;;;;;;5026461;28;20398;-77
2023/09/26 03:46:05;;;;;;;1999.90;999.90;;;16.00;99.90;;;;;;5024524;28;20535;-73
2023/09/26 03:48:32;;;;;;;1999.90;999.90;;;16.00;99.90;;;;;;5026144;28;20029;-73
2023/09/26 03:51:14;;;;;;;1999.90;999.90;;;16.00;99.90;;;;;;5026678;28;20087;-77
2023/09/26 03:53:41;;;;;;;1999.90;999.90;;;16.00;99.90;;;;;;5026785;28;20482;-77
2023/09/26 03:56:07;;;;;;;1999.90;999.90;;;16.00;99.90;;;;;;5017692;28;20021;-77
2023/09/26 03:58:34;;;;;;;1999.90;999.90;;;15.90;99.90;;;;;;5006430;28;20069;-78
2023/09/26 04:01:15;;;;;;;1999.90;999.90;;;15.90;99.90;;;;;;5020936;28;20810;-73
2023/09/26 04:03:48;;;;;;;1999.90;999.90;;;15.90;99.90;;;;;;5026628;28;20547;-77
2023/09/26 04:06:15;;;;;;;1999.90;999.90;;;15.90;99.90;;;;;;5006959;28;20434;-73
2023/09/26 04:08:40;;;;;;;1999.90;999.90;;;15.80;99.90;;;;;;5006932;28;20053;-77
2023/09/26 04:11:15;;;;;;;1999.90;999.90;;;15.80;99.90;;;;;;5009737;28;20108;-77
2023/09/26 04:13:41;;;;;;;1999.90;999.90;;;15.70;99.90;;;;;;5024052;28;20033;-73
2023/09/26 04:16:08;;;;;;;1999.90;999.90;;;15.70;99.90;;;;;;5025018;28;20041;-77
2023/09/26 04:18:34;;;;;;;1999.90;999.90;;;15.70;99.90;;;;;;5025699;28;20447;-77
2023/09/26 04:21:04;;;;;;;1999.90;999.90;;;15.70;99.90;;;;;;5025651;28;20028;-72
2023/09/26 04:23:30;;;;;;;1999.90;999.90;;;15.70;99.90;;;;;;5018219;28;20028;-77
2023/09/26 04:25:56;;;;;;;1999.90;999.90;;;15.60;99.90;;;;;;5005202;28;20050;-77
2023/09/26 04:28:22;;;;;;;1999.90;999.90;;;15.60;99.90;;;;;;5006396;28;20057;-77
2023/09/26 04:30:48;;;;;;;1999.90;999.90;;;15.60;99.90;;;;;;5006692;28;20362;-73
2023/09/26 04:33:13;;;;;;;1999.90;999.90;;;15.50;99.90;;;;;;5006366;28;20479;-78
2023/09/26 04:35:42;;;;;;;1999.90;999.90;;;15.50;99.90;;;;;;5006361;28;20029;-77
2023/09/26 04:38:08;;;;;;;1999.90;999.90;;;15.40;99.90;;;;;;5017338;28;20036;-73
2023/09/26 04:40:34;;;;;;;1999.90;999.90;;;15.30;99.90;;;;;;5025738;28;20068;-72
2023/09/26 04:43:04;;;;;;;1999.90;999.90;;;15.30;99.90;;;;;;5026474;28;20470;-78
2023/09/26 04:45:31;;;;;;;1999.90;999.90;;;15.30;99.90;;;;;;5025991;28;20029;-77
2023/09/26 04:47:58;;;;;;;1999.90;999.90;;;15.30;99.90;;;;;;5025494;28;20021;-77
2023/09/26 04:50:24;;;;;;;1999.90;999.90;;;15.30;99.90;;;;;;5023588;28;20044;-77
2023/09/26 04:52:50;;;;;;;1999.90;999.90;;;15.30;99.90;;;;;;5023633;28;20056;-73
2023/09/26 04:55:16;;;;;;;1999.90;999.90;;;15.40;99.90;;;;;;5023919;28;20064;-72
2023/09/26 04:57:42;;;;;;;1999.90;999.90;;;15.40;99.90;;;;;;5016345;28;20111;-73
2023/09/26 05:00:09;;;;;;;1999.90;999.90;;;15.40;99.90;;;;;;5025627;28;20520;-73
2023/09/26 05:02:35;;;;;;;1999.90;999.90;;;15.30;99.90;;;;;;5025858;28;20029;-77
2023/09/26 05:05:02;;;;;;;1999.90;999.90;;;15.30;99.90;;;;;;5023170;28;20594;-73
2023/09/26 05:07:29;;;;;;;1999.90;999.90;;;15.30;99.90;;;;;;5025774;28;20144;-73
2023/09/26 05:09:56;;;;;;;1999.90;999.90;;;15.20;99.90;;;;;;5025078;28;20025;-77
2023/09/26 05:12:22;;;;;;;1999.90;999.90;;;15.20;99.90;;;;;;5028952;28;20051;-77
2023/09/26 05:14:48;;;;;;;1999.90;999.90;;;15.30;99.90;;;;;;5029801;28;20751;-77
2023/09/26 05:17:13;;;;;;;1999.90;999.90;;;15.20;99.90;;;;;;5029228;28;20884;-72
2023/09/26 05:19:39;;;;;;;1999.90;999.90;;;15.20;99.90;;;;;;5029386;28;20415;-73
2023/09/26 05:22:04;;;;;;;1999.90;999.90;;;15.10;99.90;;;;;;5027398;28;20708;-73
2023/09/26 05:24:30;;;;;;;1999.90;999.90;;;15.10;99.90;;;;;;5027089;28;20662;-77
2023/09/26 05:26:55;;;;;;;1999.90;999.90;;;15.10;99.90;;;;;;5023485;28;20107;-77
2023/09/26 05:29:21;;;;;;;1999.90;999.90;;;15.10;99.90;;;;;;5017632;28;20029;-77
2023/09/26 05:31:47;;;;;;;1999.90;999.90;;;15.10;99.90;;;;;;5022418;28;20109;-73
2023/09/26 05:34:12;;;;;;;1999.90;999.90;;;15.00;99.90;;;;;;5028193;28;20060;-73
2023/09/26 05:36:38;;;;;;;1999.90;999.90;;;15.00;99.90;;;;;;5024033;28;20143;-77
2023/09/26 05:39:05;;;;;;;1999.90;999.90;;;14.90;99.90;;;;;;5014853;28;20079;-73
2023/09/26 05:41:31;;;;;;;1999.90;999.90;;;14.90;99.90;;;;;;5028847;28;20025;-77
2023/09/26 05:43:56;;;;;;;1999.90;999.90;;;14.90;99.90;;;;;;5028167;28;20053;-73
2023/09/26 05:46:22;;;;;;;1999.90;999.90;;;14.90;99.90;;;;;;5028308;28;20578;-73
2023/09/26 05:48:50;;;;;;;1999.90;999.90;;;14.80;99.90;;;;;;5028307;28;20111;-73
2023/09/26 05:51:15;;;;;;;1999.90;999.90;;;14.80;99.90;;;;;;5023711;28;20669;-77
2023/09/26 05:53:41;;;;;;;1999.90;999.90;;;14.80;99.90;;;;;;5026520;28;20415;-77
2023/09/26 05:56:07;;;;;;;1999.90;999.90;;;14.80;99.90;;;;;;5018515;28;20461;-73
2023/09/26 05:58:33;;;;;;;1999.90;999.90;;;14.80;99.90;;;;;;5022245;28;20028;-73
2023/09/26 06:01:06;;;;;;;1999.90;999.90;;;14.90;99.90;;;;;;5027691;28;20102;-72
2023/09/26 06:03:31;;;;;;;1999.90;999.90;;;14.90;99.90;;;;;;5027321;28;20025;-73
2023/09/26 06:06:00;;;;;;;1999.90;999.90;;;14.80;99.90;;;;;;5027631;28;20033;-77
2023/09/26 06:08:26;;;;;;;1999.90;999.90;;;14.80;99.90;;;;;;5025950;28;20037;-77
2023/09/26 06:10:52;;;;;;;1999.90;999.90;;;14.90;99.90;;;;;;5024617;28;20252;-73
2023/09/26 06:13:18;;;;;;;1999.90;999.90;;;14.90;99.90;;;;;;5024567;28;20024;-73
2023/09/26 06:15:43;;;;;;;1999.90;999.90;;;14.90;99.90;;;;;;5027236;28;20033;-73
2023/09/26 06:18:09;;;;;;;1999.90;999.90;;;15.00;99.90;;;;;;5027086;28;20594;-73
2023/09/26 06:20:38;;;;;;;1999.90;999.90;;;15.00;99.90;;;;;;5027510;28;20502;-77
2023/09/26 06:23:04;;;;;;;1999.90;999.90;;;15.00;99.90;;;;;;5021151;28;20618;-77
2023/09/26 06:25:29;;;;;;;1999.90;999.90;;;15.10;99.90;;;;;;5022765;28;20406;-73
2023/09/26 06:27:55;;;;;;;1999.90;999.90;;;15.10;99.90;;;;;;5016046;28;20108;-77
2023/09/26 06:30:21;;;;;;;1999.90;999.90;;;15.20;99.90;;;;;;5030191;28;20315;-73
2023/09/26 06:32:46;;;;;;;1999.90;999.90;;;15.30;99.90;;;;;;5015515;28;20040;-73
2023/09/26 06:35:13;;;;;;;1999.90;999.90;;;15.40;99.90;;;;;;5011491;28;20755;-74
2023/09/26 06:37:38;;;;;;;1999.90;999.90;;;15.40;99.90;;;;;;5018033;28;20033;-73
2023/09/26 06:40:05;;;;;;;1999.90;999.90;;;15.50;99.90;;;;;;5017688;28;20048;-77
2023/09/26 06:42:31;;;;;;;1999.90;999.90;;;15.60;99.90;;;;;;5024631;28;20068;-78
2023/09/26 06:44:57;;;;;;;1999.90;999.90;;;15.70;99.90;;;;;;5025256;28;20043;-78
2023/09/26 06:47:26;;;;;;;1999.90;999.90;;;15.80;99.90;;;;;;5025869;28;20417;-74
2023/09/26 06:49:53;;;;;;;1999.90;999.90;;;15.80;99.90;;;;;;5026174;28;20033;-74
2023/09/26 06:52:20;;;;;;;1999.90;999.90;;;15.90;99.90;;;;;;5025895;28;20442;-78
2023/09/26 06:54:45;;;;;;;1999.90;999.90;;;15.90;99.90;;;;;;5026214;28;20025;-78
2023/09/26 06:57:15;;;;;;;1999.90;999.90;;;15.90;99.90;;;;;;5025892;28;20080;-78
2023/09/26 06:59:41;;;;;;;1999.90;999.90;;;16.00;99.90;;;;;;5024179;28;20025;-78
2023/09/26 07:02:08;;;;;;;1999.90;999.90;;;16.10;99.90;;;;;;5022058;28;20029;-73
2023/09/26 07:04:34;;;;;;;1999.90;999.90;;;16.30;99.90;;;;;;5019472;28;20037;-73
2023/09/26 07:07:00;;;;;;;1999.90;999.90;;;16.50;99.90;;;;;;5020614;28;20312;-79
2023/09/26 07:09:26;;;;;;;1999.90;999.90;;;16.60;99.90;;;;;;5023992;28;20036;-74
2023/09/26 07:11:52;;;;;;;1999.90;999.90;;;16.60;99.90;;;;;;5018158;28;20490;-78
2023/09/26 07:14:18;;;;;;;1999.90;999.90;;;16.60;99.90;;;;;;5025750;28;20029;-74
2023/09/26 07:16:46;;;;;;;1999.90;999.90;;;16.50;99.90;;;;;;5025490;28;20424;-73
2023/09/26 07:19:12;;;;;;;1999.90;999.90;;;16.60;99.90;;;;;;5026057;28;20036;-79
2023/09/26 07:21:38;;;;;;;1999.90;999.90;;;16.80;99.90;;;;;;5025174;28;20025;-79
2023/09/26 07:24:04;;;;;;;1999.90;999.90;;;16.80;99.90;;;;;;5026466;28;20063;-78
2023/09/26 07:26:31;;;;;;;1999.90;999.90;;;16.90;99.90;;;;;;5023273;28;20040;-77
2023/09/26 07:28:57;;;;;;;1999.90;999.90;;;16.90;99.90;;;;;;5027652;28;20024;-74
2023/09/26 07:31:23;;;;;;;1999.90;999.90;;;17.00;99.90;;;;;;5026958;28;20036;-78
2023/09/26 07:33:49;;;;;;;1999.90;999.90;;;17.00;99.90;;;;;;5026815;28;20028;-79
2023/09/26 07:36:15;;;;;;;1999.90;999.90;;;16.90;99.90;;;;;;5026856;28;20037;-78
2023/09/26 07:38:41;;;;;;;1999.90;999.90;;;17.00;99.90;;;;;;5024696;28;20037;-73
2023/09/26 07:41:06;;;;;;;1999.90;999.90;;;17.00;99.90;;;;;;5025956;28;20093;-73
2023/09/26 07:43:35;;;;;;;1999.90;999.90;;;17.20;99.90;;;;;;5026291;28;20155;-73
2023/09/26 07:46:09;;;;;;;1999.90;999.90;;;17.60;99.90;;;;;;5024107;28;20013;-79
2023/09/26 07:48:35;;;;;;;1999.90;999.90;;;17.90;99.90;;;;;;5025499;28;20060;-78
2023/09/26 07:51:02;;;;;;;1999.90;999.90;;;17.90;99.90;;;;;;5026254;28;20029;-79
2023/09/26 07:53:28;;;;;;;1999.90;999.90;;;17.90;99.90;;;;;;5025717;28;20042;-73
2023/09/26 07:55:56;;;;;;;1999.90;999.90;;;18.00;99.90;;;;;;5025252;28;20907;-73
2023/09/26 07:58:21;;;;;;;1999.90;999.90;;;18.20;99.90;;;;;;5025254;28;20105;-79
2023/09/26 08:00:47;;;;;;;1999.90;999.90;;;19.20;99.90;;;;;;5025244;28;20682;-79
2023/09/26 08:03:13;;;;;;;1999.90;999.90;;;19.60;99.90;;;;;;5026513;28;20033;-79
2023/09/26 08:05:38;;;;;;;1999.90;999.90;;;19.40;99.90;;;;;;5026149;28;20074;-78
2023/09/26 08:08:04;;;;;;;1999.90;999.90;;;19.30;99.90;;;;;;5025055;28;20051;-73
2023/09/26 08:10:36;;;;;;;1999.90;999.90;;;18.90;99.90;;;;;;5024765;28;20140;-73
2023/09/26 08:13:02;;;;;;;1999.90;999.90;;;18.80;99.90;;;;;;5027871;28;20044;-78
2023/09/26 08:15:31;;;;;;;1999.90;999.90;;;18.70;99.90;;;;;;5025424;28;20085;-79
2023/09/26 08:17:57;;;;;;;1999.90;999.90;;;18.70;99.90;;;;;;5028010;28;20032;-78
2023/09/26 08:20:24;;;;;;;1999.90;999.90;;;19.00;99.90;;;;;;5025410;28;20025;-73
2023/09/26 08:22:49;;;;;;;1999.90;999.90;;;19.50;99.90;;;;;;5025231;28;20021;-73
2023/09/26 08:25:15;;;;;;;1999.90;999.90;;;19.90;99.90;;;;;;5024706;28;20134;-79
2023/09/26 08:27:41;;;;;;;1999.90;999.90;;;20.30;99.90;;;;;;5025012;28;20071;-79
2023/09/26 08:30:11;;;;;;;1999.90;999.90;;;20.80;99.90;;;;;;5025002;28;20017;-73
2023/09/26 08:32:37;;;;;;;1999.90;999.90;;;20.80;99.90;;;;;;5018286;28;20158;-79
2023/09/26 08:35:04;;;;;;;1999.90;999.90;;;21.00;99.90;;;;;;5019678;28;20136;-73
2023/09/26 08:37:30;;;;;;;1999.90;999.90;;;21.60;99.90;;;;;;5024897;28;20127;-79
2023/09/26 08:39:56;;;;;;;1999.90;999.90;;;22.50;99.90;;;;;;5025915;28;20029;-78
2023/09/26 08:42:27;;;;;;;1999.90;999.90;;;23.20;99.90;;;;;;5026196;28;20029;-79
2023/09/26 08:44:54;;;;;;;1999.90;999.90;;;24.00;99.90;;;;;;5023779;28;20128;-79
2023/09/26 08:47:24;;;;;;;1999.90;999.90;;;24.90;99.90;;;;;;5021576;28;20021;-74
2023/09/26 08:49:56;;;;;;;1999.90;999.90;;;25.70;99.90;;;;;;5021845;28;20428;-79
2023/09/26 08:52:25;;;;;;;1999.90;999.90;;;25.20;99.90;;;;;;5022688;28;20102;-79
2023/09/26 08:54:51;;;;;;;1999.90;999.90;;;24.90;99.90;;;;;;5024105;28;20033;-79
2023/09/26 08:57:21;;;;;;;1999.90;999.90;;;24.40;99.90;;;;;;5022077;28;20032;-74
2023/09/26 08:59:47;;;;;;;1999.90;999.90;;;24.30;99.90;;;;;;5021950;28;20645;-73
2023/09/26 09:02:13;;;;;;;1999.90;999.90;;;24.20;99.90;;;;;;5016629;28;20124;-73
2023/09/26 09:04:43;;;;;;;1999.90;999.90;;;23.80;99.90;;;;;;5021976;28;20174;-79
2023/09/26 09:07:10;;;;;;;1999.90;999.90;;;23.80;99.90;;;;;;5024152;28;20554;-79
2023/09/26 09:09:36;;;;;;;1999.90;999.90;;;23.30;99.90;;;;;;5023707;28;20041;-79
2023/09/26 09:12:02;;;;;;;1999.90;999.90;;;23.60;99.90;;;;;;5025153;28;20389;-73
2023/09/26 09:14:35;;;;;;;1999.90;999.90;;;23.40;99.90;;;;;;5020871;28;20339;-73
2023/09/26 09:17:01;;;;;;;1999.90;999.90;;;23.10;99.90;;;;;;5023064;28;20021;-79
2023/09/26 09:19:49;;;;;;;1999.90;999.90;;;23.00;99.90;;;;;;5023402;28;20567;-79
2023/09/26 09:22:24;;;;;;;1999.90;999.90;;;22.50;99.90;;;;;;5024158;28;20079;-79
2023/09/26 09:24:54;;;;;;;1999.90;999.90;;;22.50;99.90;;;;;;5026063;28;20058;-73
2023/09/26 09:27:30;;;;;;;1999.90;999.90;;;22.30;99.90;;;;;;5024208;28;20037;-79
2023/09/26 09:30:14;;;;;;;1999.90;999.90;;;22.50;99.90;;;;;;5024318;28;20856;-79
2023/09/26 09:32:41;;;;;;;1999.90;999.90;;;22.80;99.90;;;;;;5026218;28;20037;-79
2023/09/26 09:35:11;;;;;;;1999.90;999.90;;;23.30;99.90;;;;;;5025834;28;20040;-74
2023/09/26 09:37:37;;;;;;;1999.90;999.90;;;23.70;99.90;;;;;;5025367;28;20136;-74
2023/09/26 09:40:05;;;;;;;1999.90;999.90;;;23.60;99.90;;;;;;5015529;28;20034;-74
2023/09/26 09:42:30;;;;;;;1999.90;999.90;;;23.50;99.90;;;;;;5019099;28;20037;-79
2023/09/26 09:44:56;;;;;;;1999.90;999.90;;;23.10;99.90;;;;;;5021663;28;20186;-80
2023/09/26 09:47:24;;;;;;;1999.90;999.90;;;22.50;99.90;;;;;;5022033;28;20040;-80
2023/09/26 09:49:51;;;;;;;1999.90;999.90;;;22.10;99.90;;;;;;5024534;28;20047;-79
2023/09/26 09:52:21;;;;;;;1999.90;999.90;;;21.90;99.90;;;;;;5024360;28;20681;-74
2023/09/26 09:54:50;;;;;;;1999.90;999.90;;;22.00;99.90;;;;;;5023547;28;20033;-79
2023/09/26 09:57:20;;;;;;;1999.90;999.90;;;22.00;99.90;;;;;;5026822;28;20083;-79
2023/09/26 09:59:46;;;;;;;1999.90;999.90;;;22.20;99.90;;;;;;5020560;28;20052;-74
2023/09/26 10:02:16;;;;;;;1999.90;999.90;;;22.60;99.90;;;;;;5029294;28;20025;-79
2023/09/26 10:04:44;;;;;;;1999.90;999.90;;;22.90;99.90;;;;;;5026902;28;20032;-74
2023/09/26 10:07:11;;;;;;;1999.90;999.90;;;22.90;99.90;;;;;;5024439;28;20463;-79
2023/09/26 10:09:38;;;;;;;1999.90;999.90;;;23.30;99.90;;;;;;5026306;28;20057;-79
2023/09/26 10:12:05;;;;;;;1999.90;999.90;;;23.70;99.90;;;;;;5025362;28;20173;-78
2023/09/26 10:14:31;;;;;;;1999.90;999.90;;;24.30;99.90;;;;;;5025552;28;20040;-73
2023/09/26 10:16:57;;;;;;;1999.90;999.90;;;24.70;99.90;;;;;;5023455;28;20033;-74
2023/09/26 10:19:25;;;;;;;1999.90;999.90;;;25.10;99.90;;;;;;5024834;28;20033;-73
2023/09/26 10:21:52;;;;;;;1999.90;999.90;;;25.00;99.90;;;;;;5025455;28;20550;-79
2023/09/26 10:24:18;;;;;;;1999.90;999.90;;;25.00;99.90;;;;;;5025731;28;20048;-79
2023/09/26 10:26:49;;;;;;;1999.90;999.90;;;25.10;99.90;;;;;;5026040;28;20029;-79
2023/09/26 10:29:15;;;;;;;1999.90;999.90;;;25.40;99.90;;;;;;5025704;28;20765;-74
2023/09/26 10:31:47;;;;;;;1999.90;999.90;;;25.30;99.90;;;;;;5024156;28;20033;-73
2023/09/26 10:34:15;;;;;;;1999.90;999.90;;;25.40;99.90;;;;;;5024753;28;20440;-79
2023/09/26 10:36:42;;;;;;;1999.90;999.90;;;25.10;99.90;;;;;;5015444;28;20328;-79
2023/09/26 10:39:09;;;;;;;1999.90;999.90;;;25.10;99.90;;;;;;5020448;28;20068;-79
2023/09/26 10:41:36;;;;;;;1999.90;999.90;;;25.30;99.90;;;;;;5024105;28;20040;-78
2023/09/26 10:44:04;;;;;;;1999.90;999.90;;;25.20;99.90;;;;;;5020849;28;20328;-73
2023/09/26 10:46:30;;;;;;;1999.90;999.90;;;25.40;99.90;;;;;;5022233;28;20736;-79
2023/09/26 10:48:59;;;;;;;1999.90;999.90;;;25.30;99.90;;;;;;5021070;28;20464;-73
2023/09/26 10:51:26;;;;;;;1999.90;999.90;;;25.60;99.90;;;;;;5014502;28;20111;-78
2023/09/26 10:53:51;;;;;;;1999.90;999.90;;;25.60;99.90;;;;;;5016218;28;20037;-79
2023/09/26 10:56:18;;;;;;;1999.90;999.90;;;24.90;99.90;;;;;;5017897;28;20455;-73
2023/09/26 10:58:46;;;;;;;1999.90;999.90;;;24.50;99.90;;;;;;5021560;28;20040;-73
2023/09/26 11:01:12;;;;;;;1999.90;999.90;;;24.00;99.90;;;;;;5019449;28;20032;-79
2023/09/26 11:03:37;;;;;;;1999.90;999.90;;;23.90;99.90;;;;;;5014504;28;20128;-78
2023/09/26 11:06:04;;;;;;;1999.90;999.90;;;24.00;99.90;;;;;;5016674;28;20036;-79
2023/09/26 11:08:30;;;;;;;1999.90;999.90;;;24.10;99.90;;;;;;5013518;28;20060;-76
2023/09/26 11:10:57;;;;;;;1999.90;999.90;;;24.10;99.90;;;;;;5019227;28;20052;-80
2023/09/26 11:13:23;;;;;;;1999.90;999.90;;;24.10;99.90;;;;;;5023313;28;20036;-81
2023/09/26 11:15:55;;;;;;;1999.90;999.90;;;24.10;99.90;;;;;;5015541;28;20033;-78
2023/09/26 11:18:21;;;;;;;1999.90;999.90;;;24.20;99.90;;;;;;5019308;28;20602;-73
2023/09/26 11:20:47;;;;;;;1999.90;999.90;;;23.90;99.90;;;;;;5012688;28;20034;-79
2023/09/26 11:23:33;;;;;;;1999.90;999.90;;;23.90;99.90;;;;;;5017382;28;20327;-74
2023/09/26 11:26:03;;;;;;;1999.90;999.90;;;24.10;99.90;;;;;;5014171;28;20389;-79
2023/09/26 11:28:30;;;;;;;1999.90;999.90;;;23.90;99.90;;;;;;5021075;28;20124;-74
2023/09/26 11:30:55;;;;;;;1999.90;999.90;;;23.80;99.90;;;;;;5017343;28;20450;-73
2023/09/26 11:33:21;;;;;;;1999.90;999.90;;;24.00;99.90;;;;;;5019363;28;20043;-79
2023/09/26 11:35:47;;;;;;;1999.90;999.90;;;24.00;99.90;;;;;;5009144;28;20408;-74
2023/09/26 11:38:14;;;;;;;1999.90;999.90;;;24.10;99.90;;;;;;5008456;28;20476;-79
2023/09/26 11:40:39;;;;;;;1999.90;999.90;;;24.40;99.90;;;;;;5020276;28;20036;-79
2023/09/26 11:43:06;;;;;;;1999.90;999.90;;;24.20;99.90;;;;;;5020292;28;20059;-79
2023/09/26 11:45:32;;;;;;;1999.90;999.90;;;24.20;99.90;;;;;;5018781;28;20036;-79
2023/09/26 11:47:59;;;;;;;1999.90;999.90;;;24.50;99.90;;;;;;5019828;28;20103;-73
2023/09/26 11:50:28;;;;;;;1999.90;999.90;;;24.70;99.90;;;;;;5014313;28;20036;-74
2023/09/26 11:53:01;;;;;;;1999.90;999.90;;;25.00;99.90;;;;;;5021320;28;20163;-80
2023/09/26 11:55:27;;;;;;;1999.90;999.90;;;25.20;99.90;;;;;;5019096;28;20446;-79
2023/09/26 11:57:53;;;;;;;1999.90;999.90;;;25.00;99.90;;;;;;5022011;28;20116;-79